Aviation Digital Data Service (ADDS)

Output produced by METARs form (1559 UTC 16 April 2014)
found at http://aviationweather.gov/adds/metars/
 
KMIV 161120Z 1612/1712 34010G20KT P6SM SKC 
     FM162300 06008KT P6SM SCT250